Time;durP1;ratioP1;P1;durP2;ratioP2;P2;SDS_P1;SDS_P2;PMS_P1;PMS_P2;Temp;Humidity;BMP_temperature;BMP_pressure;BME280_temperature;BME280_humidity;BME280_pressure;Samples;Min_cycle;Max_cycle;Signal;HPM_P1;HPM_P2
2021/10/25 00:01:21;;;;;;;1.10;0.77;;;21.40;52.90;;;;;;6268326;28;20036;-70
2021/10/25 00:04:22;;;;;;;1.40;0.90;;;21.40;52.90;;;;;;6295657;28;20505;-71
2021/10/25 00:07:24;;;;;;;1.00;0.75;;;21.40;52.90;;;;;;6287774;28;20550;-70
2021/10/25 00:10:26;;;;;;;1.83;0.82;;;21.40;52.80;;;;;;6271377;28;20049;-70
2021/10/25 00:13:26;;;;;;;1.52;0.90;;;21.30;52.80;;;;;;6285321;28;20456;-70
2021/10/25 00:16:30;;;;;;;1.27;0.70;;;21.30;52.80;;;;;;6296727;28;20055;-70
2021/10/25 00:19:32;;;;;;;0.82;0.73;;;21.40;52.80;;;;;;6295562;28;20033;-70
2021/10/25 00:22:34;;;;;;;1.15;0.77;;;21.40;52.90;;;;;;6295996;28;20098;-70
2021/10/25 00:25:35;;;;;;;1.92;0.80;;;21.30;52.80;;;;;;6288638;28;20021;-70
2021/10/25 00:28:37;;;;;;;1.00;0.68;;;21.40;52.90;;;;;;6295901;28;20028;-70
2021/10/25 00:31:39;;;;;;;1.25;0.95;;;21.30;52.80;;;;;;6294722;28;20017;-70
2021/10/25 00:34:41;;;;;;;1.25;0.90;;;21.40;52.90;;;;;;6295588;28;20434;-70
2021/10/25 00:37:43;;;;;;;1.48;0.70;;;21.40;52.90;;;;;;6295342;28;20024;-70
2021/10/25 00:40:44;;;;;;;1.05;0.65;;;21.30;52.80;;;;;;6293043;28;20058;-70
2021/10/25 00:43:45;;;;;;;1.05;0.70;;;21.40;52.90;;;;;;6270753;28;20099;-71
2021/10/25 00:46:45;;;;;;;0.85;0.63;;;21.30;52.80;;;;;;6270593;28;20039;-71
2021/10/25 00:49:46;;;;;;;1.10;0.70;;;21.30;52.90;;;;;;6293011;28;20016;-70
2021/10/25 00:52:47;;;;;;;0.85;0.70;;;21.30;52.80;;;;;;6278696;28;20044;-70
2021/10/25 00:55:49;;;;;;;1.88;0.82;;;21.40;52.90;;;;;;6270357;28;20025;-70
2021/10/25 00:58:49;;;;;;;1.02;0.93;;;21.30;52.90;;;;;;6269833;28;20623;-70
2021/10/25 01:01:50;;;;;;;0.63;0.60;;;21.30;52.90;;;;;;6289296;28;20024;-70
2021/10/25 01:04:50;;;;;;;0.93;0.57;;;21.30;52.90;;;;;;6293697;28;20028;-71
2021/10/25 01:07:53;;;;;;;1.05;0.75;;;21.30;52.90;;;;;;6293697;28;20028;-70
2021/10/25 01:10:53;;;;;;;2.15;1.00;;;21.40;52.90;;;;;;6294714;28;20055;-70
2021/10/25 01:13:54;;;;;;;1.67;0.90;;;21.30;52.90;;;;;;6273085;28;20024;-70
2021/10/25 01:16:56;;;;;;;1.27;0.73;;;21.40;52.90;;;;;;6271923;28;20078;-70
2021/10/25 01:19:57;;;;;;;1.88;0.90;;;21.30;52.90;;;;;;6294520;28;20119;-70
2021/10/25 01:23:00;;;;;;;0.93;0.75;;;21.30;52.90;;;;;;6294671;28;20016;-70
2021/10/25 01:26:01;;;;;;;1.52;0.90;;;21.30;52.90;;;;;;6294446;28;20436;-70
2021/10/25 01:29:02;;;;;;;0.70;0.50;;;21.40;53.00;;;;;;6294315;28;20035;-70
2021/10/25 01:32:04;;;;;;;1.55;0.85;;;21.30;52.90;;;;;;6293196;28;20029;-70
2021/10/25 01:35:05;;;;;;;0.85;0.73;;;21.40;53.00;;;;;;6294300;28;20055;-70
2021/10/25 01:38:08;;;;;;;1.55;0.80;;;21.30;52.90;;;;;;6271759;28;20052;-70
2021/10/25 01:41:12;;;;;;;1.10;0.70;;;21.40;52.90;;;;;;6274030;28;20021;-70
2021/10/25 01:44:13;;;;;;;1.95;0.93;;;21.30;52.90;;;;;;6294488;28;20029;-70
2021/10/25 01:47:15;;;;;;;1.17;0.98;;;21.40;53.10;;;;;;6282938;28;20017;-70
2021/10/25 01:50:25;;;;;;;0.85;0.65;;;21.30;52.90;;;;;;6269035;28;20032;-70
2021/10/25 01:53:32;;;;;;;1.30;0.90;;;21.40;52.90;;;;;;6290855;28;20028;-70
2021/10/25 01:56:34;;;;;;;1.35;0.90;;;21.40;53.00;;;;;;6287234;28;20025;-70
2021/10/25 01:59:36;;;;;;;1.15;0.90;;;21.30;52.90;;;;;;6268602;28;20569;-70
2021/10/25 02:02:39;;;;;;;1.33;0.93;;;21.30;52.90;;;;;;6282049;28;20024;-70
2021/10/25 02:05:41;;;;;;;0.85;0.75;;;21.30;53.00;;;;;;6292579;28;20029;-70
2021/10/25 02:08:44;;;;;;;1.33;0.82;;;21.30;53.00;;;;;;6292850;28;20104;-70
2021/10/25 02:11:47;;;;;;;1.42;0.80;;;21.30;53.00;;;;;;6293201;28;20117;-70
2021/10/25 02:14:49;;;;;;;1.33;0.82;;;21.30;53.00;;;;;;6294002;28;20027;-70
2021/10/25 02:17:52;;;;;;;1.30;0.80;;;21.30;53.00;;;;;;6281744;28;20091;-70
2021/10/25 02:20:56;;;;;;;0.80;0.60;;;21.40;53.00;;;;;;6268538;28;20437;-70
2021/10/25 02:23:59;;;;;;;2.58;1.05;;;21.30;53.00;;;;;;6291158;28;20521;-70
2021/10/25 02:27:03;;;;;;;0.93;0.60;;;21.30;53.00;;;;;;6258905;28;20021;-70
2021/10/25 02:30:06;;;;;;;0.70;0.70;;;21.30;52.90;;;;;;6243292;28;20391;-71
2021/10/25 02:33:11;;;;;;;2.53;1.13;;;21.30;52.90;;;;;;6288606;28;20027;-70
2021/10/25 02:36:16;;;;;;;0.85;0.63;;;21.30;52.90;;;;;;6293018;28;20025;-70
2021/10/25 02:39:34;;;;;;;;;;;;;;;;;;;;;
2021/10/25 02:42:36;;;;;;;1.38;0.88;;;21.40;53.10;;;;;;6292876;28;20593;-70
2021/10/25 02:45:40;;;;;;;1.02;0.70;;;21.30;53.00;;;;;;6292514;28;20119;-70
2021/10/25 02:48:44;;;;;;;0.90;0.80;;;21.30;53.00;;;;;;6269853;28;20072;-70
2021/10/25 02:51:57;;;;;;;1.30;0.95;;;21.30;53.10;;;;;;6276419;28;20113;-70
2021/10/25 02:55:03;;;;;;;1.38;0.82;;;21.30;53.10;;;;;;6292834;28;20024;-70
2021/10/25 02:58:13;;;;;;;1.17;0.70;;;21.30;53.00;;;;;;6292416;28;20354;-70
2021/10/25 03:01:16;;;;;;;1.58;0.98;;;21.30;53.10;;;;;;6292590;28;20107;-70
2021/10/25 03:04:30;;;;;;;1.30;0.90;;;21.30;53.00;;;;;;6293093;28;20389;-70
2021/10/25 03:07:39;;;;;;;1.05;0.70;;;21.30;53.00;;;;;;6283224;28;20390;-70
2021/10/25 03:10:43;;;;;;;1.83;1.00;;;21.30;53.00;;;;;;6276962;28;20571;-70
2021/10/25 03:13:48;;;;;;;1.42;0.70;;;21.30;53.00;;;;;;6291036;28;20025;-70
2021/10/25 03:16:50;;;;;;;;;;;21.30;53.00;;;;;;6291721;28;20029;-70
2021/10/25 03:20:03;;;;;;;1.85;0.70;;;21.30;53.80;;;;;;6266129;28;19943;-70
2021/10/25 03:23:06;;;;;;;1.38;0.80;;;21.30;53.00;;;;;;6276377;28;20025;-70
2021/10/25 03:26:08;;;;;;;1.35;0.80;;;21.30;53.00;;;;;;6291424;28;20029;-70
2021/10/25 03:29:11;;;;;;;0.98;0.65;;;21.30;53.00;;;;;;6292074;28;20056;-70
2021/10/25 03:32:18;;;;;;;1.00;0.88;;;21.30;53.00;;;;;;6291841;28;20493;-70
2021/10/25 03:35:19;;;;;;;1.00;0.70;;;21.30;53.10;;;;;;6292286;28;20017;-71
2021/10/25 03:38:22;;;;;;;0.85;0.70;;;21.30;53.10;;;;;;6285241;28;20021;-70
2021/10/25 03:41:39;;;;;;;1.35;0.82;;;21.30;53.10;;;;;;6295253;28;20086;-70
2021/10/25 03:44:48;;;;;;;0.95;0.70;;;21.30;53.00;;;;;;6295283;28;20064;-70
2021/10/25 03:48:07;;;;;;;;;;;;;;;;;;;;;
2021/10/25 03:51:03;;;;;;;1.20;0.70;;;21.30;53.00;;;;;;6274061;28;20037;-70
2021/10/25 04:13:53;;;;;;;1.35;0.80;;;21.30;53.10;;;;;;6290160;28;20412;-70
2021/10/25 04:30:31;;;;;;;1.10;0.73;;;21.30;53.10;;;;;;6295426;28;20394;-70
2021/10/25 04:33:33;;;;;;;1.63;0.70;;;21.30;53.10;;;;;;6295634;28;20123;-70
2021/10/25 04:36:34;;;;;;;1.10;0.77;;;21.30;53.10;;;;;;6294473;28;20020;-70
2021/10/25 04:39:35;;;;;;;1.30;0.60;;;21.30;53.10;;;;;;6294423;28;20078;-70
2021/10/25 04:42:36;;;;;;;1.45;0.70;;;21.30;53.10;;;;;;6291202;28;20025;-70
2021/10/25 04:45:37;;;;;;;1.00;0.70;;;21.30;53.10;;;;;;6295612;28;20016;-70
2021/10/25 04:48:42;;;;;;;1.77;0.95;;;21.30;53.80;;;;;;6271112;28;20045;-70
2021/10/25 04:51:47;;;;;;;1.20;0.90;;;21.30;53.20;;;;;;6273453;28;20111;-70
2021/10/25 04:55:06;;;;;;;0.70;0.60;;;21.30;53.10;;;;;;6282237;28;20029;-70
2021/10/25 04:58:07;;;;;;;0.70;0.70;;;21.30;53.10;;;;;;6295158;28;20024;-71
2021/10/25 05:01:08;;;;;;;1.52;0.73;;;21.30;53.10;;;;;;6287096;28;20032;-70
2021/10/25 05:04:09;;;;;;;0.85;0.70;;;21.30;53.10;;;;;;6244764;28;20024;-70
2021/10/25 05:07:12;;;;;;;1.60;0.80;;;21.30;53.10;;;;;;6254554;28;20016;-70
2021/10/25 05:10:23;;;;;;;0.65;0.60;;;21.30;53.10;;;;;;6292708;28;20033;-71
2021/10/25 05:13:26;;;;;;;0.75;0.70;;;21.30;53.20;;;;;;6279541;28;20021;-70
2021/10/25 05:16:27;;;;;;;0.88;0.63;;;21.30;53.20;;;;;;6270139;28;20060;-70
2021/10/25 05:19:29;;;;;;;1.08;0.85;;;21.30;53.10;;;;;;6269759;28;20040;-70
2021/10/25 05:22:31;;;;;;;1.20;0.73;;;21.30;53.20;;;;;;6275692;28;20025;-70
2021/10/25 05:25:36;;;;;;;1.13;0.70;;;21.30;53.20;;;;;;6294533;28;20047;-70
2021/10/25 05:28:37;;;;;;;0.85;0.60;;;21.30;53.20;;;;;;6294631;28;20032;-70
2021/10/25 05:31:40;;;;;;;1.42;0.80;;;21.30;53.20;;;;;;6292793;28;20112;-70
2021/10/25 05:34:42;;;;;;;0.90;0.70;;;21.30;53.90;;;;;;6294831;28;20028;-70
2021/10/25 05:37:43;;;;;;;1.48;0.70;;;21.30;53.20;;;;;;6294169;28;20027;-70
2021/10/25 05:40:45;;;;;;;1.30;0.75;;;21.30;53.10;;;;;;6294341;28;20047;-70
2021/10/25 05:44:08;;;;;;;0.50;0.50;;;21.30;53.10;;;;;;6294671;28;20016;-70
2021/10/25 05:47:12;;;;;;;0.73;0.73;;;21.30;53.10;;;;;;6282864;28;20055;-70
2021/10/25 05:50:15;;;;;;;1.80;0.80;;;21.30;53.20;;;;;;6270164;28;20057;-70
2021/10/25 05:53:17;;;;;;;0.98;0.63;;;21.30;53.20;;;;;;6269798;28;20024;-70
2021/10/25 05:56:18;;;;;;;1.55;0.90;;;21.30;53.20;;;;;;6271447;28;20048;-70
2021/10/25 05:59:24;;;;;;;1.85;0.80;;;21.30;53.20;;;;;;6288741;28;20108;-70
2021/10/25 06:02:27;;;;;;;1.27;0.80;;;21.30;53.30;;;;;;6267501;28;20091;-70
2021/10/25 06:05:30;;;;;;;1.38;0.90;;;21.30;53.20;;;;;;6251149;28;20033;-70
2021/10/25 06:08:31;;;;;;;0.95;0.70;;;21.30;53.30;;;;;;6277070;28;20025;-70
2021/10/25 06:11:34;;;;;;;0.98;0.73;;;21.30;53.20;;;;;;6273733;28;20052;-70
2021/10/25 06:14:39;;;;;;;0.93;0.75;;;21.30;53.30;;;;;;6295755;28;20020;-70
2021/10/25 06:17:51;;;;;;;1.20;0.75;;;21.30;53.20;;;;;;6282657;28;20040;-70
2021/10/25 06:21:11;;;;;;;1.58;0.90;;;21.30;53.20;;;;;;6280393;28;20752;-70
2021/10/25 06:24:12;;;;;;;1.25;0.95;;;21.30;53.20;;;;;;6295072;28;20024;-70
2021/10/25 06:27:13;;;;;;;1.35;0.90;;;21.30;53.30;;;;;;6294999;28;20025;-70
2021/10/25 06:30:15;;;;;;;1.00;0.68;;;21.30;53.30;;;;;;6295358;28;20055;-70
2021/10/25 06:33:16;;;;;;;1.25;0.93;;;21.30;53.30;;;;;;6270967;28;20032;-70
2021/10/25 06:36:19;;;;;;;1.42;0.82;;;21.30;53.30;;;;;;6270727;28;20487;-70
2021/10/25 06:39:28;;;;;;;1.23;0.80;;;21.30;53.20;;;;;;6268965;28;20025;-70
2021/10/25 06:42:29;;;;;;;0.95;0.77;;;21.30;53.30;;;;;;6286047;28;20446;-70
2021/10/25 06:45:30;;;;;;;1.85;1.00;;;21.30;53.30;;;;;;6295215;28;20024;-70
2021/10/25 06:48:31;;;;;;;1.00;0.80;;;21.30;53.30;;;;;;6253340;28;20025;-70
2021/10/25 06:51:32;;;;;;;1.42;0.82;;;21.30;53.20;;;;;;6274838;28;20025;-70
2021/10/25 06:54:33;;;;;;;1.27;0.80;;;21.30;53.30;;;;;;6294266;28;20039;-70
2021/10/25 06:57:34;;;;;;;0.90;0.80;;;21.30;54.00;;;;;;6277398;28;20081;-70
2021/10/25 07:00:35;;;;;;;1.10;0.80;;;21.30;53.30;;;;;;6294943;28;20037;-70
2021/10/25 07:03:37;;;;;;;1.58;1.00;;;21.30;53.30;;;;;;6272597;28;20032;-70
2021/10/25 07:06:38;;;;;;;1.40;0.98;;;21.30;53.30;;;;;;6268693;28;20029;-70
2021/10/25 07:09:38;;;;;;;1.50;0.90;;;21.30;53.20;;;;;;6268214;28;20441;-70
2021/10/25 07:12:39;;;;;;;1.00;0.60;;;21.30;53.20;;;;;;6283174;28;20040;-70
2021/10/25 07:16:26;;;;;;;1.73;0.85;;;21.30;53.20;;;;;;6299725;28;20031;-70
2021/10/25 07:22:43;;;;;;;0.70;0.60;;;21.30;53.20;;;;;;6279729;28;20020;-70
2021/10/25 08:12:02;;;;;;;2.30;1.20;;;21.20;53.10;;;;;;6277246;28;20426;-70
2021/10/25 08:15:07;;;;;;;6.50;1.08;;;21.20;52.90;;;;;;6298806;28;20101;-70
2021/10/25 08:18:21;;;;;;;;;;;21.20;52.90;;;;;;6297879;28;20013;-70
2021/10/25 08:21:22;;;;;;;3.38;1.30;;;21.20;52.90;;;;;;6296953;28;19916;-70
2021/10/25 08:24:24;;;;;;;2.08;1.30;;;21.20;53.10;;;;;;6275145;28;20405;-70
2021/10/25 08:27:25;;;;;;;3.03;1.10;;;21.20;53.70;;;;;;6296115;28;20020;-70
2021/10/25 08:30:26;;;;;;;3.95;1.10;;;21.20;53.00;;;;;;6295846;28;20025;-70
2021/10/25 08:33:43;;;;;;;1.98;0.98;;;21.20;53.10;;;;;;6298185;28;20064;-70
2021/10/25 08:40:05;;;;;;;1.70;1.10;;;21.20;53.00;;;;;;6296969;28;20040;-70
2021/10/25 08:43:07;;;;;;;2.22;1.33;;;21.20;53.00;;;;;;6277341;28;20501;-70
2021/10/25 08:46:09;;;;;;;2.80;1.40;;;21.20;53.00;;;;;;6271603;28;20025;-70
2021/10/25 08:49:11;;;;;;;2.58;1.38;;;21.20;53.00;;;;;;6248772;28;20079;-70
2021/10/25 08:52:12;;;;;;;3.92;1.25;;;21.20;53.10;;;;;;6269157;28;20033;-70
2021/10/25 08:55:16;;;;;;;2.40;1.40;;;21.20;53.00;;;;;;6297631;28;20028;-70
2021/10/25 08:58:18;;;;;;;2.45;1.67;;;21.20;53.00;;;;;;6297612;28;20019;-70
2021/10/25 09:01:38;;;;;;;2.60;1.08;;;21.20;53.00;;;;;;6297284;28;20029;-70
2021/10/25 09:04:39;;;;;;;2.80;1.17;;;21.20;53.10;;;;;;6296981;28;20024;-70
2021/10/25 09:07:54;;;;;;;3.33;1.45;;;21.20;53.10;;;;;;6296067;28;20029;-70
2021/10/25 09:10:55;;;;;;;2.33;1.05;;;21.20;53.00;;;;;;6293029;28;20050;-70
2021/10/25 09:13:56;;;;;;;1.92;1.10;;;21.20;53.00;;;;;;6296331;28;20029;-70
2021/10/25 09:17:06;;;;;;;1.73;1.20;;;21.20;53.10;;;;;;6295251;28;20094;-70
2021/10/25 09:20:08;;;;;;;2.80;1.52;;;21.20;53.80;;;;;;6295694;28;20028;-70
2021/10/25 09:23:09;;;;;;;1.23;0.98;;;21.20;53.10;;;;;;6283817;28;20028;-70
2021/10/25 09:26:16;;;;;;;1.88;1.30;;;21.20;53.10;;;;;;6283482;28;20027;-70
2021/10/25 09:29:24;;;;;;;2.22;1.38;;;21.20;53.20;;;;;;6295921;28;20096;-70
2021/10/25 09:32:34;;;;;;;1.42;0.93;;;21.20;53.10;;;;;;6294134;28;20024;-70
2021/10/25 09:35:39;;;;;;;2.78;1.33;;;21.20;53.10;;;;;;6295245;28;20017;-70
2021/10/25 09:42:13;;;;;;;1.88;1.20;;;21.20;53.10;;;;;;6296251;28;20044;-70
2021/10/25 09:51:53;;;;;;;2.42;1.25;;;21.20;53.20;;;;;;6279829;28;20573;-70
2021/10/25 09:55:02;;;;;;;1.95;1.10;;;21.20;53.30;;;;;;6294279;28;20017;-70
2021/10/25 09:58:16;;;;;;;1.65;1.10;;;21.20;53.30;;;;;;6276578;28;20017;-70
2021/10/25 10:01:23;;;;;;;2.85;1.50;;;21.20;53.20;;;;;;6272837;28;20548;-70
2021/10/25 10:04:23;;;;;;;2.13;1.20;;;21.20;53.30;;;;;;6295710;28;20027;-70
2021/10/25 10:07:26;;;;;;;2.53;1.40;;;21.20;53.30;;;;;;6284941;28;20119;-70
2021/10/25 10:10:27;;;;;;;1.40;1.13;;;21.20;53.20;;;;;;6270869;28;20406;-70
2021/10/25 10:13:29;;;;;;;1.70;1.08;;;21.20;53.20;;;;;;6285758;28;20040;-70
2021/10/25 10:16:32;;;;;;;1.90;1.10;;;21.20;53.20;;;;;;6295445;28;20028;-70
2021/10/25 10:19:34;;;;;;;1.90;1.23;;;21.20;53.30;;;;;;6269930;28;20035;-70
2021/10/25 10:22:36;;;;;;;2.28;1.25;;;21.20;53.30;;;;;;6277421;28;20101;-70
2021/10/25 10:25:46;;;;;;;4.50;1.10;;;21.20;53.30;;;;;;6292153;28;20021;-70
2021/10/25 10:28:50;;;;;;;3.17;1.38;;;21.20;53.30;;;;;;6295679;28;20118;-70
2021/10/25 10:32:02;;;;;;;3.10;1.30;;;21.20;53.20;;;;;;6278925;28;20470;-70
2021/10/25 10:35:07;;;;;;;2.35;1.40;;;21.20;53.20;;;;;;6270609;28;20121;-70
2021/10/25 10:38:09;;;;;;;2.45;1.40;;;21.20;53.30;;;;;;6291520;28;20074;-70
2021/10/25 10:41:09;;;;;;;1.60;1.20;;;21.20;53.20;;;;;;6294915;28;20097;-70
2021/10/25 10:44:15;;;;;;;1.75;1.08;;;21.20;53.30;;;;;;6293893;28;20091;-70
2021/10/25 10:47:19;;;;;;;1.70;1.30;;;21.20;53.30;;;;;;6282851;28;20107;-70
2021/10/25 10:50:23;;;;;;;2.00;1.10;;;21.20;53.30;;;;;;6269967;28;20063;-70
2021/10/25 10:53:28;;;;;;;1.27;1.00;;;21.20;53.30;;;;;;6268810;28;20079;-70
2021/10/25 10:56:36;;;;;;;2.75;1.30;;;21.20;53.30;;;;;;6270610;28;20047;-70
2021/10/25 10:59:50;;;;;;;3.15;1.20;;;21.20;53.30;;;;;;6270654;28;20021;-70
2021/10/25 11:02:59;;;;;;;1.73;1.10;;;21.20;53.40;;;;;;6283718;28;20033;-70
2021/10/25 11:06:01;;;;;;;1.23;1.02;;;21.20;53.30;;;;;;6268568;28;20022;-70
2021/10/25 11:09:09;;;;;;;2.28;1.10;;;21.20;53.30;;;;;;6269872;28;20025;-70
2021/10/25 11:12:12;;;;;;;1.67;1.05;;;21.20;53.30;;;;;;6269020;28;20049;-70
2021/10/25 11:15:15;;;;;;;1.65;1.17;;;21.20;53.30;;;;;;6269701;28;20024;-70
2021/10/25 11:18:16;;;;;;;1.00;0.90;;;21.20;53.30;;;;;;6284060;28;20025;-70
2021/10/25 11:21:35;;;;;;;2.00;1.10;;;21.20;53.30;;;;;;6294371;28;20406;-70
2021/10/25 11:24:37;;;;;;;1.77;1.00;;;21.20;53.90;;;;;;6270353;28;20025;-70
2021/10/25 11:27:40;;;;;;;1.98;1.05;;;21.20;53.20;;;;;;6288371;28;20394;-70
2021/10/25 11:30:40;;;;;;;1.88;1.10;;;21.20;53.30;;;;;;6293587;28;20505;-70
2021/10/25 11:33:46;;;;;;;2.65;1.17;;;21.20;53.30;;;;;;6292905;28;20058;-70
2021/10/25 11:36:59;;;;;;;1.23;1.00;;;21.20;53.30;;;;;;6283597;28;20465;-70
2021/10/25 11:40:05;;;;;;;1.67;1.13;;;21.20;53.20;;;;;;6269298;28;20025;-70
2021/10/25 11:43:06;;;;;;;1.45;1.05;;;21.20;53.20;;;;;;6288416;28;20105;-70
2021/10/25 11:46:18;;;;;;;2.00;1.10;;;21.20;53.30;;;;;;6289152;28;20018;-70
2021/10/25 11:49:23;;;;;;;1.92;1.08;;;21.20;53.20;;;;;;6269274;28;20509;-70
2021/10/25 11:52:24;;;;;;;;;;;21.20;53.30;;;;;;6282652;28;20024;-70
2021/10/25 11:55:40;;;;;;;2.00;1.10;;;21.20;53.30;;;;;;6293053;28;20331;-70
2021/10/25 11:58:42;;;;;;;1.88;1.20;;;21.20;53.20;;;;;;6294836;28;20389;-70
2021/10/25 12:01:43;;;;;;;1.13;0.98;;;21.20;53.30;;;;;;6298257;28;20394;-70
2021/10/25 12:04:46;;;;;;;1.25;0.90;;;21.20;53.30;;;;;;6298606;28;20029;-70
2021/10/25 12:07:48;;;;;;;1.65;1.08;;;21.20;53.20;;;;;;6283299;28;20021;-70
2021/10/25 12:10:50;;;;;;;1.45;0.95;;;21.20;53.30;;;;;;6272164;28;20033;-70
2021/10/25 12:14:00;;;;;;;1.17;0.95;;;21.20;53.70;;;;;;6289790;28;20032;-70
2021/10/25 12:17:00;;;;;;;2.15;1.10;;;21.20;53.30;;;;;;6295662;28;20013;-70
2021/10/25 12:20:05;;;;;;;1.92;1.20;;;21.20;53.30;;;;;;6298926;28;20108;-70
2021/10/25 12:23:10;;;;;;;;;;;21.20;53.20;;;;;;6298353;28;20020;-70
2021/10/25 12:26:15;;;;;;;1.42;0.93;;;21.20;53.20;;;;;;6297102;28;19912;-70
2021/10/25 12:29:18;;;;;;;1.85;1.23;;;21.20;53.20;;;;;;6296876;28;20020;-70
2021/10/25 12:32:18;;;;;;;2.20;1.00;;;21.20;53.20;;;;;;6296926;28;20478;-70
2021/10/25 12:35:49;;;;;;;1.05;0.85;;;21.20;53.30;;;;;;6297557;28;20031;-70
2021/10/25 12:38:54;;;;;;;2.28;1.17;;;21.20;53.20;;;;;;6293085;28;21050;-70
2021/10/25 12:41:59;;;;;;;1.60;1.00;;;21.20;53.30;;;;;;6298420;28;20029;-70
2021/10/25 12:44:59;;;;;;;2.05;1.38;;;21.20;53.30;;;;;;6297776;28;20021;-70
2021/10/25 12:48:00;;;;;;;1.50;1.00;;;21.20;53.20;;;;;;6262538;28;20499;-70
2021/10/25 12:51:03;;;;;;;1.65;0.88;;;21.20;53.20;;;;;;6267824;28;20386;-70
2021/10/25 12:54:11;;;;;;;1.17;1.00;;;21.20;53.20;;;;;;6272441;28;20024;-70
2021/10/25 12:57:21;;;;;;;1.00;0.80;;;21.20;53.30;;;;;;6283449;28;20485;-70
2021/10/25 13:00:22;;;;;;;1.42;0.90;;;21.20;53.30;;;;;;6295602;28;20051;-70
2021/10/25 13:03:29;;;;;;;1.45;1.10;;;21.20;53.30;;;;;;6276359;28;20478;-70
2021/10/25 13:06:31;;;;;;;3.65;0.90;;;21.20;53.30;;;;;;6272248;28;20021;-70
2021/10/25 13:09:31;;;;;;;1.27;0.90;;;21.20;53.30;;;;;;6271500;28;20040;-71
2021/10/25 13:12:32;;;;;;;1.42;0.65;;;21.20;53.30;;;;;;6281051;28;20048;-70
2021/10/25 13:15:35;;;;;;;1.25;0.80;;;21.20;53.30;;;;;;6296827;28;20032;-70
2021/10/25 13:18:36;;;;;;;1.67;1.15;;;21.20;53.30;;;;;;6294972;28;20025;-70
2021/10/25 13:21:36;;;;;;;1.83;1.15;;;21.20;53.30;;;;;;6295235;28;20060;-70
2021/10/25 13:24:37;;;;;;;1.45;0.90;;;21.20;53.30;;;;;;6247244;28;20036;-71
2021/10/25 13:27:38;;;;;;;1.30;1.10;;;21.20;53.30;;;;;;6290075;28;20024;-70
2021/10/25 13:30:39;;;;;;;1.52;0.88;;;21.20;53.30;;;;;;6295684;28;20393;-70
2021/10/25 13:33:41;;;;;;;2.30;1.15;;;21.20;53.30;;;;;;6294968;28;20025;-70
2021/10/25 13:36:41;;;;;;;1.73;0.90;;;21.20;53.30;;;;;;6295341;28;20056;-70
2021/10/25 13:39:42;;;;;;;1.38;0.80;;;21.20;53.40;;;;;;6295811;28;20578;-70
2021/10/25 13:42:43;;;;;;;1.30;1.00;;;21.20;53.30;;;;;;6296733;28;20021;-70
2021/10/25 13:45:45;;;;;;;0.90;0.80;;;21.20;53.30;;;;;;6295708;28;20024;-70
2021/10/25 13:48:46;;;;;;;1.58;1.10;;;21.20;53.20;;;;;;6265326;28;20013;-70
2021/10/25 13:51:46;;;;;;;0.90;0.75;;;21.20;53.40;;;;;;6278873;28;20512;-70
2021/10/25 13:54:47;;;;;;;1.58;0.88;;;21.20;53.30;;;;;;6296192;28;20051;-70
2021/10/25 13:57:49;;;;;;;1.30;0.80;;;21.20;53.30;;;;;;6295870;28;20032;-70
2021/10/25 14:00:50;;;;;;;1.10;0.93;;;21.20;53.30;;;;;;6296199;28;20027;-71
2021/10/25 14:03:52;;;;;;;1.17;0.75;;;21.20;53.30;;;;;;6271898;28;20106;-70
2021/10/25 14:06:53;;;;;;;0.90;0.73;;;21.20;53.30;;;;;;6273718;28;20116;-70
2021/10/25 14:09:57;;;;;;;1.10;0.70;;;21.20;53.30;;;;;;6293736;28;20375;-70
2021/10/25 14:13:04;;;;;;;1.38;1.00;;;21.20;53.30;;;;;;6295889;28;20029;-70
2021/10/25 14:19:23;;;;;;;1.33;0.98;;;21.20;53.30;;;;;;6295269;28;20182;-70
2021/10/25 14:22:25;;;;;;;1.05;0.77;;;21.20;53.30;;;;;;6288227;28;20386;-70
2021/10/25 14:25:28;;;;;;;1.17;0.90;;;21.20;54.00;;;;;;6278314;28;20059;-70
2021/10/25 14:28:30;;;;;;;3.00;1.00;;;21.20;53.30;;;;;;6295224;28;20024;-70
2021/10/25 14:31:32;;;;;;;1.75;1.10;;;21.20;53.30;;;;;;6296455;28;20029;-70
2021/10/25 14:34:33;;;;;;;0.93;0.80;;;21.20;53.20;;;;;;6296822;28;20031;-69
2021/10/25 14:37:38;;;;;;;0.90;0.80;;;21.20;53.30;;;;;;6290613;28;20021;-69
2021/10/25 14:40:59;;;;;;;1.17;0.70;;;21.20;53.30;;;;;;6297110;28;20016;-69
2021/10/25 14:44:04;;;;;;;1.23;0.88;;;21.20;53.40;;;;;;6296728;28;20513;-68
2021/10/25 14:53:30;;;;;;;1.40;0.80;;;21.20;53.40;;;;;;6260814;28;20103;-69
2021/10/25 14:56:30;;;;;;;3.92;1.20;;;21.20;53.40;;;;;;6253628;28;20028;-69
2021/10/25 14:59:31;;;;;;;2.03;0.90;;;21.20;53.10;;;;;;6270655;28;20075;-69
2021/10/25 15:02:34;;;;;;;1.48;0.90;;;21.20;53.00;;;;;;6268406;28;20021;-69
2021/10/25 15:05:35;;;;;;;3.55;1.20;;;21.20;53.00;;;;;;6270423;28;20458;-68
2021/10/25 15:08:35;;;;;;;5.22;1.30;;;21.20;52.90;;;;;;6269321;28;20021;-69
2021/10/25 15:11:36;;;;;;;2.50;1.42;;;21.20;53.60;;;;;;6270089;28;20045;-69
2021/10/25 15:14:41;;;;;;;4.65;1.60;;;21.20;53.00;;;;;;6269894;28;20050;-68
2021/10/25 15:17:46;;;;;;;2.33;1.50;;;21.20;52.70;;;;;;6268868;28;20025;-69
2021/10/25 15:20:48;;;;;;;5.25;1.92;;;21.20;52.40;;;;;;6270624;28;20497;-69
2021/10/25 15:23:51;;;;;;;6.03;1.60;;;21.20;52.20;;;;;;6270327;28;20029;-69
2021/10/25 15:26:56;;;;;;;2.63;1.40;;;21.20;52.40;;;;;;6269338;28;20597;-69
2021/10/25 15:29:57;;;;;;;2.42;1.42;;;21.20;52.50;;;;;;6270939;28;20078;-69
2021/10/25 15:32:58;;;;;;;5.43;1.40;;;21.20;52.50;;;;;;6270833;28;20025;-69
2021/10/25 15:36:02;;;;;;;3.83;1.70;;;21.20;52.30;;;;;;6279032;28;20029;-70
2021/10/25 15:39:04;;;;;;;4.68;1.83;;;21.20;52.40;;;;;;6276479;28;20074;-69
2021/10/25 15:42:09;;;;;;;6.30;1.60;;;21.20;52.50;;;;;;6272072;28;20032;-70
2021/10/25 15:45:10;;;;;;;4.07;2.03;;;21.20;52.00;;;;;;6276048;28;20514;-69
2021/10/25 15:48:11;;;;;;;5.60;2.00;;;21.20;51.90;;;;;;6273907;28;20025;-69
2021/10/25 15:51:14;;;;;;;4.70;2.05;;;21.20;52.20;;;;;;6277156;28;20033;-69
2021/10/25 15:54:16;;;;;;;6.22;2.20;;;21.20;52.40;;;;;;6298474;28;20470;-69
2021/10/25 15:57:17;;;;;;;5.35;2.97;;;21.20;52.80;;;;;;6299665;28;20029;-70
2021/10/25 16:00:19;;;;;;;5.93;3.17;;;21.20;53.10;;;;;;6275025;28;20414;-69
2021/10/25 16:03:19;;;;;;;4.97;2.88;;;21.20;53.60;;;;;;6272959;28;20025;-69
2021/10/25 16:06:20;;;;;;;4.70;2.42;;;21.20;53.90;;;;;;6272893;28;20056;-69
2021/10/25 16:09:21;;;;;;;6.07;2.28;;;21.20;54.10;;;;;;6272936;28;20041;-70
2021/10/25 16:12:22;;;;;;;4.15;2.42;;;21.20;54.20;;;;;;6275089;28;20098;-70
2021/10/25 16:15:23;;;;;;;6.13;2.53;;;21.20;54.40;;;;;;6292678;28;20033;-70
2021/10/25 16:18:23;;;;;;;5.78;2.67;;;21.30;54.80;;;;;;6265927;28;20029;-69
2021/10/25 16:21:24;;;;;;;5.65;2.55;;;21.20;54.50;;;;;;6251171;28;20029;-69
2021/10/25 16:24:25;;;;;;;6.70;2.00;;;21.30;54.60;;;;;;6285871;28;20047;-70
2021/10/25 16:27:25;;;;;;;4.78;2.38;;;21.30;54.60;;;;;;6270428;28;20448;-69
2021/10/25 16:30:26;;;;;;;4.50;1.80;;;21.20;54.30;;;;;;6292175;28;20588;-70
2021/10/25 16:33:27;;;;;;;5.13;1.95;;;21.20;54.20;;;;;;6280004;28;20021;-69
2021/10/25 16:36:29;;;;;;;21.20;2.45;;;21.30;54.20;;;;;;6271533;28;20531;-69
2021/10/25 16:39:30;;;;;;;12.77;2.15;;;21.30;54.20;;;;;;6271969;28;20108;-69
2021/10/25 16:42:30;;;;;;;14.07;2.55;;;21.20;53.90;;;;;;6271244;28;20032;-70
2021/10/25 16:45:32;;;;;;;8.30;2.33;;;21.20;53.80;;;;;;6271262;28;20102;-69
2021/10/25 16:48:38;;;;;;;15.15;2.20;;;21.20;53.80;;;;;;6271614;28;20025;-69
2021/10/25 16:51:50;;;;;;;5.60;2.20;;;21.30;53.80;;;;;;6260662;28;20076;-69
2021/10/25 16:55:25;;;;;;;5.72;2.33;;;21.30;53.80;;;;;;6266930;28;20505;-69
2021/10/25 17:11:27;;;;;;;5.18;1.95;;;21.30;53.60;;;;;;6270549;28;20049;-68
2021/10/25 17:14:28;;;;;;;7.50;2.20;;;21.30;53.60;;;;;;6270632;28;20033;-69
2021/10/25 17:17:29;;;;;;;7.95;2.00;;;21.30;53.50;;;;;;6267954;28;20612;-69
2021/10/25 17:20:29;;;;;;;8.98;2.65;;;21.30;53.50;;;;;;6269351;28;20437;-69
2021/10/25 17:23:34;;;;;;;13.05;2.00;;;21.30;53.50;;;;;;6268440;28;20726;-69
2021/10/25 17:26:39;;;;;;;4.10;1.90;;;21.30;53.40;;;;;;6269058;28;20020;-69
2021/10/25 17:29:39;;;;;;;6.10;2.60;;;21.30;53.40;;;;;;6269573;28;20394;-69
2021/10/25 17:32:40;;;;;;;4.38;1.60;;;21.30;53.40;;;;;;6286362;28;20025;-70
2021/10/25 17:35:41;;;;;;;3.83;1.77;;;21.30;53.40;;;;;;6293926;28;20251;-69
2021/10/25 17:38:42;;;;;;;3.35;1.30;;;21.30;53.40;;;;;;6270858;28;20048;-69
2021/10/25 17:41:44;;;;;;;4.00;1.80;;;21.30;53.40;;;;;;6270001;28;20067;-70
2021/10/25 17:44:44;;;;;;;2.75;1.70;;;21.30;53.40;;;;;;6268780;28;20024;-69
2021/10/25 17:47:45;;;;;;;4.18;1.85;;;21.30;53.40;;;;;;6259699;28;20025;-69
2021/10/25 17:50:47;;;;;;;3.20;1.80;;;21.30;53.40;;;;;;6261314;28;20048;-70
2021/10/25 17:53:48;;;;;;;2.70;1.52;;;21.30;53.30;;;;;;6269177;28;20025;-70
2021/10/25 17:56:50;;;;;;;4.53;1.80;;;21.30;53.30;;;;;;6270479;28;20055;-69
2021/10/25 17:59:50;;;;;;;5.57;1.90;;;21.30;53.40;;;;;;6273171;28;20100;-69